Pagina principale
METAR-TAF:

METAR-TAF

Aeroporti :

Katima Mulilo, Namibia

latitudine: 17-38-04S, longitudine: 024-10-36E, altezza: 985 m

Osservazione

Il bollettino è stato emesso 21 minuti fa, alle 10:00 UTC
Vento 9 kt da est
Temperature 22°C
Umidità 33%
Pressione 1023 hPa
Visibilità 10 km o più
Poco nuvoloso ad un'altezza di 3000 ft

METAR: FYKM 071000Z 08009KT 9999 FEW030 22/05 Q1023

Ora: 12:21 (10:21 UTC)

Previsione

Il bollettino è stato emesso 2 ore e 21 minuti fa, alle 08:00 UTC
Previsione valida dal 07 alle 09 UTC al 07 alle 18 UTC
Vento 9 kt da est
Visibilità 10 km o più
nessuna nube inferiore a 1500 m e nessun cumulonembo
Evoluzione graduale
dal 07 alle 10 UTC al 07 alle 12 UTC
Vento 8 kt da est
Visibilità 10 km o più
Nubi sparse ad un'altezza di 4000 ft

TAF: FYKM 070800Z 0709/0718 08009KT CAVOK BECMG 0710/0712 10008KT 9999 SCT040

Osservazioni e previsioni meteorologiche di più di 4000 aeroporti (messaggi METAR e TAF).

Le stazioni disponibili sono rappresentate dai dischi gialli e rossi sulla carta.

Puntare il mouse per vedere il nome della stazione.

Clicca sopra per visualizzare le osservazioni e previsioni meteorologiche.

Per cambiare la mappa : fare clic sui pulsanti verdi con una croce nera per ingrandire, il pulsante verde con un trattino per diminuire, o sulla freccia verde per le mappe adiacenti.


METAR-TAF: